Time;durP1;ratioP1;P1;durP2;ratioP2;P2;SDS_P1;SDS_P2;PMS_P1;PMS_P2;Temp;Humidity;BMP_temperature;BMP_pressure;BME280_temperature;BME280_humidity;BME280_pressure;Samples;Min_cycle;Max_cycle;Signal;HPM_P1;HPM_P2
2021/03/03 00:00:12;;;;;;;15.60;10.63;;;;;;;7.00;45.44;95100.94;4852157;28;20060;-83
2021/03/03 00:06:14;;;;;;;18.08;10.73;;;;;;;6.53;45.32;95017.03;4988460;28;20050;-81
2021/03/03 00:12:39;;;;;;;;;;;;;;;;;;;;;
2021/03/03 00:15:33;;;;;;;18.65;10.00;;;;;;;6.77;45.51;95065.03;4922785;28;20043;-82
2021/03/03 00:18:11;;;;;;;15.55;10.45;;;;;;;6.70;46.48;95074.06;4933089;28;20488;-83
2021/03/03 00:21:29;;;;;;;18.63;11.82;;;;;;;6.37;47.73;95038.75;4905821;28;20230;-82
2021/03/03 00:24:42;;;;;;;19.67;10.90;;;;;;;6.61;45.79;95064.94;4902878;28;20385;-84
2021/03/03 00:27:22;;;;;;;22.23;11.13;;;;;;;6.81;46.12;95102.94;4895421;28;20122;-82
2021/03/03 00:30:19;;;;;;;;;;;;;;;;;;;;;
2021/03/03 00:33:32;;;;;;;19.92;11.35;;;;;;;6.78;46.18;95086.84;4895997;28;20062;-82
2021/03/03 00:36:25;;;;;;;;;;;;;;;;;;;;;
2021/03/03 00:39:16;;;;;;;18.15;11.32;;;;;;;6.41;46.31;95037.25;4884484;28;20052;-82
2021/03/03 00:42:17;;;;;;;;;;;;;;;;;;;;;
2021/03/03 00:44:51;;;;;;;17.70;10.50;;;;;;;6.65;46.22;95076.59;4869445;28;20057;-83
2021/03/03 00:47:42;;;;;;;19.42;10.43;;;;;;;6.89;46.27;95109.69;4839806;29;20193;-82
2021/03/03 00:50:22;;;;;;;17.92;10.63;;;;;;;6.49;46.16;95036.91;4782931;29;20043;-82
2021/03/03 00:53:17;;;;;;;16.70;10.63;;;;;;;6.80;46.29;95093.44;4844708;28;20044;-83
2021/03/03 00:56:32;;;;;;;20.42;11.63;;;;;;;6.36;46.13;95026.66;4900454;28;20037;-84
2021/03/03 00:59:01;;;;;;;19.08;10.70;;;;;;;6.65;46.23;95089.72;4870242;29;20769;-83
2021/03/03 01:01:52;;;;;;;;;;;;;;;;;;;;;
2021/03/03 01:04:37;;;;;;;20.27;10.75;;;;;;;6.65;46.49;95084.47;4861619;28;20059;-84
2021/03/03 01:07:10;;;;;;;19.73;10.90;;;;;;;6.45;46.11;95043.63;4861145;28;20142;-83
2021/03/03 01:09:50;;;;;;;18.98;10.02;;;;;;;6.41;46.23;95028.56;4860382;28;20070;-83
2021/03/03 01:12:36;;;;;;;17.42;9.63;;;;;;;6.81;46.44;95094.25;4853666;28;20453;-83
2021/03/03 01:15:27;;;;;;;;;;;;;;;;;;;;;
2021/03/03 01:18:29;;;;;;;18.33;10.20;;;;;;;6.13;46.71;95026.69;4895199;28;20051;-83
2021/03/03 01:21:03;;;;;;;17.50;10.63;;;;;;;6.61;46.55;95094.66;4949879;28;20046;-83
2021/03/03 01:23:57;;;;;;;15.23;10.23;;;;;;;6.60;47.16;95095.66;4889384;28;20047;-84
2021/03/03 01:26:47;;;;;;;;;;;;;;;;;;;;;
2021/03/03 01:29:30;;;;;;;17.23;10.13;;;;;;;6.17;47.27;95030.47;4898404;28;20053;-83
2021/03/03 01:32:07;;;;;;;14.45;10.32;;;;;;;6.31;47.53;95052.00;4908996;28;20027;-84
2021/03/03 01:37:30;;;;;;;17.63;10.80;;;;;;;6.24;47.25;95028.53;4922977;28;20053;-83
2021/03/03 01:40:20;;;;;;;;;;;;;;;;;;;;;
2021/03/03 01:43:05;;;;;;;15.18;9.55;;;;;;;6.20;47.99;95047.59;4909266;28;20078;-83
2021/03/03 01:45:39;;;;;;;15.43;9.88;;;;;;;6.12;48.18;95043.47;4926363;28;21110;-83
2021/03/03 01:48:19;;;;;;;16.95;10.15;;;;;;;6.30;48.12;95059.09;4912719;28;20039;-83
2021/03/03 01:50:47;;;;;;;18.58;11.32;;;;;;;6.17;47.97;95048.03;4948746;28;20663;-83
2021/03/03 01:53:16;;;;;;;17.50;10.40;;;;;;;6.47;47.73;95090.69;4915047;28;20097;-83
2021/03/03 01:56:04;;;;;;;;;;;;;;;;;;;;;
2021/03/03 01:58:57;;;;;;;19.75;10.88;;;;;;;5.94;48.19;95025.25;4964862;28;20428;-83
2021/03/03 02:01:50;;;;;;;;;;;;;;;;;;;;;
2021/03/03 02:04:23;;;;;;;21.05;12.35;;;;;;;6.03;48.21;95036.97;4946132;28;20052;-83
2021/03/03 02:07:07;;;;;;;24.77;11.10;;;;;;;6.21;48.24;95065.72;4879990;28;20133;-83
2021/03/03 02:10:31;;;;;;;;;;;;;;;;;;;;;
2021/03/03 02:13:35;;;;;;;18.20;10.13;;;;;;;6.32;48.49;95098.25;4854918;28;20254;-83
2021/03/03 02:16:09;;;;;;;22.73;10.82;;;;;;;5.84;48.59;95032.84;4824840;28;20569;-83
2021/03/03 02:18:56;;;;;;;;;;;;;;;;;;;;;
2021/03/03 02:21:48;;;;;;;16.77;10.45;;;;;;;6.29;49.00;95109.22;4921526;28;20019;-83
2021/03/03 02:24:39;;;;;;;18.35;11.50;;;;;;;6.05;49.23;95055.94;4840059;29;20104;-83
2021/03/03 02:27:11;;;;;;;21.00;10.77;;;;;;;5.81;49.59;95033.31;4814594;29;20052;-83
2021/03/03 02:29:43;;;;;;;20.08;12.43;;;;;;;5.73;49.79;95046.75;4890192;28;21343;-83
2021/03/03 02:32:27;;;;;;;19.38;12.20;;;;;;;5.94;49.69;95086.41;4961521;28;20396;-83
2021/03/03 02:35:05;;;;;;;21.92;11.80;;;;;;;5.75;50.17;95077.00;4899402;28;20310;-83
2021/03/03 02:37:43;;;;;;;22.98;12.23;;;;;;;6.04;50.23;95127.81;4894326;28;20130;-83
2021/03/03 02:40:36;;;;;;;;;;;;;;;;;;;;;
2021/03/03 02:43:25;;;;;;;;;;;;;;;;;;;;;
2021/03/03 02:46:05;;;;;;;24.27;13.20;;;;;;;5.90;49.85;95148.22;4887475;28;20601;-83
2021/03/03 02:49:05;;;;;;;21.38;11.32;;;;;;;5.75;49.68;95118.16;4905122;28;20747;-83
2021/03/03 02:51:44;;;;;;;;;;;;;;;;;;;;;
2021/03/03 02:54:17;;;;;;;19.67;11.10;;;;;;;5.71;49.98;95143.25;4858476;28;20049;-84
2021/03/03 02:56:52;;;;;;;24.42;13.32;;;;;;;5.67;49.84;95138.44;4858623;29;20493;-83
2021/03/03 02:59:47;;;;;;;;;;;;;;;5.59;49.98;95130.91;4815614;29;20057;-83
2021/03/03 03:02:26;;;;;;;24.80;14.15;;;;;;;5.32;50.40;95113.97;4820054;29;20014;-84
2021/03/03 03:05:08;;;;;;;22.20;12.40;;;;;;;5.39;50.48;95129.59;4843038;29;20143;-83
2021/03/03 03:07:46;;;;;;;71.32;30.63;;;;;;;5.11;50.66;95096.94;4883281;29;20040;-83
2021/03/03 03:10:20;;;;;;;24.67;14.07;;;;;;;5.23;50.75;95115.28;4815731;29;20053;-84
2021/03/03 03:13:10;;;;;;;24.10;13.48;;;;;;;4.99;50.92;95093.44;4830804;28;20044;-84
2021/03/03 03:15:49;;;;;;;26.38;12.82;;;;;;;4.75;51.35;95070.81;4798783;29;20053;-84
2021/03/03 03:18:49;;;;;;;;;;;;;;;;;;;;;
2021/03/03 03:21:45;;;;;;;22.02;12.13;;;;;;;4.69;51.51;95051.53;4831741;29;20048;-84
2021/03/03 03:24:48;;;;;;;;;;;;;;;;;;;;;
2021/03/03 03:27:39;;;;;;;22.40;12.43;;;;;;;5.12;52.19;95150.13;4895380;28;20054;-84
2021/03/03 03:30:18;;;;;;;;;;;;;;;;;;;;;
2021/03/03 03:33:09;;;;;;;;;;;;;;;;;;;;;
2021/03/03 03:36:02;;;;;;;24.85;15.30;;;;;;;4.64;52.82;95103.75;4907695;28;20031;-83
2021/03/03 03:39:00;;;;;;;23.95;13.90;;;;;;;4.69;53.07;95113.59;4865019;28;20043;-84
2021/03/03 03:41:40;;;;;;;;;;;;;;;;;;;;;
2021/03/03 03:44:44;;;;;;;24.27;14.75;;;;;;;4.25;53.18;95054.50;4888328;28;20161;-84
2021/03/03 03:47:44;;;;;;;23.35;13.77;;;;;;;4.25;53.37;95072.84;4873839;28;20072;-84
2021/03/03 03:50:39;;;;;;;35.38;19.67;;;;;;;4.25;54.02;95112.06;4901028;28;20126;-84
2021/03/03 03:53:30;;;;;;;26.30;14.52;;;;;;;3.84;54.09;95050.69;4904611;28;20039;-83
2021/03/03 03:55:59;;;;;;;21.60;13.55;;;;;;;3.96;54.34;95065.69;4879989;28;20039;-83
2021/03/03 03:58:46;;;;;;;25.05;14.55;;;;;;;4.03;54.31;95055.94;4941680;28;20034;-83
2021/03/03 04:01:50;;;;;;;;;;;;;;;;;;;;;
2021/03/03 04:04:54;;;;;;;22.77;14.25;;;;;;;4.43;54.66;95151.34;4909125;28;20173;-83
2021/03/03 04:07:31;;;;;;;25.38;14.18;;;;;;;4.17;54.87;95126.22;4856383;29;20472;-83
2021/03/03 04:10:00;;;;;;;22.70;14.13;;;;;;;3.83;55.42;95098.78;4924634;28;20092;-84
2021/03/03 04:12:26;;;;;;;22.95;15.48;;;;;;;4.20;55.69;95154.56;4878859;28;20548;-83
2021/03/03 04:15:14;;;;;;;30.40;17.90;;;;;;;3.81;56.08;95111.25;4876163;28;20127;-83
2021/03/03 04:18:06;;;;;;;29.88;17.15;;;;;;;4.23;57.96;95151.53;4865352;28;20045;-83
2021/03/03 04:21:13;;;;;;;;;;;;;;;;;;;;;
2021/03/03 04:24:07;;;;;;;34.55;17.33;;;;;;;3.60;57.78;95056.75;4911479;28;20046;-83
2021/03/03 04:26:52;;;;;;;31.17;18.60;;;;;;;3.80;58.96;95103.66;4924028;28;20391;-83
2021/03/03 04:30:04;;;;;;;;;;;;;;;;;;;;;
2021/03/03 04:32:53;;;;;;;;;;;;;;;;;;;;;
2021/03/03 04:35:48;;;;;;;28.10;17.17;;;;;;;3.64;58.26;95086.69;4912794;28;20412;-83
2021/03/03 04:38:42;;;;;;;32.22;18.00;;;;;;;3.65;58.45;95084.88;4880713;28;20332;-83
2021/03/03 04:41:48;;;;;;;;;;;;;;;;;;;;;
2021/03/03 04:44:34;;;;;;;32.15;18.13;;;;;;;3.80;58.21;95075.69;4915353;28;20041;-83
2021/03/03 04:47:23;;;;;;;;;;;;;;;;;;;;;
2021/03/03 04:50:20;;;;;;;36.28;19.05;;;;;;;3.96;60.89;95097.84;4907052;28;20022;-83
2021/03/03 04:53:21;;;;;;;;;;;;;;;;;;;;;
2021/03/03 04:59:05;;;;;;;30.85;19.13;;;;;;;4.60;62.51;95165.44;4853518;28;20042;-83
2021/03/03 05:05:26;;;;;;;35.97;19.65;;;;;;;4.22;62.36;95076.66;4873553;28;20391;-84
2021/03/03 05:08:00;;;;;;;30.92;18.17;;;;;;;5.07;61.92;95184.06;4932642;28;20099;-83
2021/03/03 05:11:03;;;;;;;32.03;18.33;;;;;;;4.90;61.83;95126.22;4949100;28;20522;-83
2021/03/03 05:13:52;;;;;;;38.17;20.05;;;;;;;4.93;61.76;95098.78;4877952;29;20051;-83
2021/03/03 05:16:44;;;;;;;;;;;;;;;;;;;;;
2021/03/03 05:19:16;;;;;;;34.35;20.15;;;;;;;6.24;59.57;95186.03;4930527;28;21713;-83
2021/03/03 05:21:56;;;;;;;31.92;18.48;;;;;;;6.02;59.31;95116.72;4877287;28;20112;-83
2021/03/03 05:27:37;;;;;;;35.63;20.77;;;;;;;6.20;57.00;95124.50;4814881;28;20557;-83
2021/03/03 05:30:27;;;;;;;35.72;19.05;;;;;;;6.70;56.89;95179.16;4896756;28;20053;-84
2021/03/03 05:33:41;;;;;;;39.95;22.15;;;;;;;6.56;55.91;95106.88;4924649;28;20342;-83
2021/03/03 05:36:06;;;;;;;;;;;;;;;;;;;;;
2021/03/03 05:39:17;;;;;;;34.53;20.90;;;;;;;6.49;55.69;95105.19;4863142;28;20145;-83
2021/03/03 05:41:51;;;;;;;37.15;20.10;;;;;;;6.88;55.77;95163.25;4922286;28;20042;-82
2021/03/03 05:44:23;;;;;;;34.13;20.00;;;;;;;6.91;55.75;95160.16;4936360;28;20070;-83
2021/03/03 05:47:27;;;;;;;40.30;19.25;;;;;;;7.11;55.17;95139.53;4917384;28;20419;-83
2021/03/03 05:50:44;;;;;;;;;;;;;;;;;;;;;
2021/03/03 05:56:41;;;;;;;;;;;;;;;;;;;;;
2021/03/03 05:59:29;;;;;;;27.83;17.95;;;;;;;11.75;44.34;95171.19;4901090;28;20103;-83
2021/03/03 06:02:11;;;;;;;;;;;;;;;;;;;;;
2021/03/03 06:05:04;;;;;;;27.30;16.42;;;;;;;13.03;39.70;95085.97;4893227;28;20051;-84
2021/03/03 06:10:34;;;;;;;30.33;17.65;;;;;;;14.11;37.62;95136.34;4885724;29;20047;-90
2021/03/03 06:13:09;;;;;;;25.90;16.88;;;;;;;14.59;36.95;95136.50;4822359;28;20074;-83
2021/03/03 06:15:58;;;;;;;23.37;16.87;;;;;;;15.29;35.75;95147.47;4837891;28;20121;-83
2021/03/03 06:18:56;;;;;;;32.45;17.25;;;;;;;16.17;34.24;95168.94;4890996;28;20046;-88
2021/03/03 06:21:52;;;;;;;23.65;15.90;;;;;;;16.88;33.14;95117.88;4885800;28;20087;-84
2021/03/03 06:24:21;;;;;;;26.88;17.17;;;;;;;17.56;32.15;95159.00;4939848;28;20072;-83
2021/03/03 06:27:05;;;;;;;28.80;19.45;;;;;;;17.83;31.06;95094.84;4871990;28;20037;-84
2021/03/03 06:30:22;;;;;;;26.08;18.50;;;;;;;18.58;30.04;95100.25;4959571;28;20054;-84
2021/03/03 06:33:12;;;;;;;27.50;18.60;;;;;;;19.63;28.55;95158.53;4873691;28;20040;-84
2021/03/03 06:35:54;;;;;;;;;;;;;;;;;;;;;
2021/03/03 06:39:03;;;;;;;26.10;18.70;;;;;;;20.11;27.68;95110.94;4896535;28;20109;-84
2021/03/03 06:41:44;;;;;;;42.58;26.27;;;;;;;21.15;26.23;95104.28;4860720;28;20055;-84
2021/03/03 06:44:32;;;;;;;;;;;;;;;;;;;;;
2021/03/03 06:47:25;;;;;;;27.60;19.48;;;;;;;22.28;25.14;95166.31;4965206;28;20520;-84
2021/03/03 06:57:14;;;;;;;24.20;16.90;;;;;;;23.28;23.22;95112.03;4866728;28;21131;-84
2021/03/03 07:03:46;;;;;;;27.58;17.33;;;;;;;24.70;22.30;95159.50;4933797;23;20213;-83
2021/03/03 07:13:40;;;;;;;20.35;15.55;;;;;;;26.20;20.13;95150.13;4864686;28;20101;-84
2021/03/03 07:16:53;;;;;;;19.75;15.75;;;;;;;26.72;20.08;95143.47;4798076;29;20055;-84
2021/03/03 07:19:21;;;;;;;17.52;15.05;;;;;;;26.64;19.62;95139.03;4767529;29;20053;-83
2021/03/03 07:22:00;;;;;;;;;;;;;;;;;;;;;
2021/03/03 07:24:35;;;;;;;21.27;16.95;;;;;;;26.77;19.64;95113.34;4797520;29;20171;-84
2021/03/03 07:27:42;;;;;;;;;;;;;;;;;;;;;
2021/03/03 07:30:31;;;;;;;25.05;16.45;;;;;;;27.92;18.50;95110.25;4885793;28;20500;-82
2021/03/03 07:33:18;;;;;;;20.35;15.77;;;;;;;28.81;18.12;95120.34;4864242;28;20041;-83
2021/03/03 07:35:51;;;;;;;22.35;16.75;;;;;;;28.68;17.95;95069.25;4913026;28;20066;-83
2021/03/03 07:38:20;;;;;;;21.10;16.60;;;;;;;28.80;18.05;95102.44;4892347;29;20051;-84
2021/03/03 07:40:50;;;;;;;19.88;16.92;;;;;;;28.89;17.81;95076.88;4884322;28;20109;-82
2021/03/03 07:43:22;;;;;;;20.88;15.05;;;;;;;29.09;17.47;95065.41;4903541;28;20133;-83
2021/03/03 07:45:51;;;;;;;17.20;15.38;;;;;;;29.29;17.32;95131.31;4837749;28;20052;-82
2021/03/03 07:48:19;;;;;;;23.85;16.63;;;;;;;29.13;17.81;95128.03;4900479;28;20109;-83
2021/03/03 07:50:55;;;;;;;23.00;17.20;;;;;;;29.73;16.97;95119.63;4961504;28;20157;-84
2021/03/03 07:53:21;;;;;;;19.23;16.27;;;;;;;29.82;17.11;95098.28;4929041;28;20615;-84
2021/03/03 07:56:06;;;;;;;20.65;17.20;;;;;;;30.11;16.72;95064.59;4948362;28;20047;-83
2021/03/03 07:58:40;;;;;;;22.13;16.73;;;;;;;30.45;16.33;95073.31;4971049;28;20402;-83
2021/03/03 08:01:12;;;;;;;20.70;15.40;;;;;;;30.88;16.31;95074.25;4927256;28;20442;-85
2021/03/03 08:04:03;;;;;;;;;;;;;;;;;;;;;
2021/03/03 08:06:56;;;;;;;17.52;15.65;;;;;;;31.69;15.72;95133.69;4913513;28;20067;-83
2021/03/03 08:09:25;;;;;;;18.75;16.75;;;;;;;31.82;15.50;95105.53;4913085;28;20089;-82
2021/03/03 08:12:15;;;;;;;18.23;15.30;;;;;;;32.00;15.13;95088.34;4902916;28;20054;-83
2021/03/03 08:14:41;;;;;;;18.90;16.15;;;;;;;32.14;15.43;95132.09;4894761;28;20067;-83
2021/03/03 08:17:14;;;;;;;18.05;16.15;;;;;;;31.81;15.57;95108.69;4941014;28;20038;-83
2021/03/03 08:20:19;;;;;;;;;;;;;;;;;;;;;
2021/03/03 08:22:53;;;;;;;;;;;;;;;31.88;15.29;95132.47;4965035;28;20181;-82
2021/03/03 08:25:44;;;;;;;18.10;15.60;;;;;;;32.30;15.02;95132.44;4982792;28;20441;-84
2021/03/03 08:28:41;;;;;;;23.15;16.63;;;;;;;31.99;15.13;95098.50;4936602;28;20161;-84
2021/03/03 08:31:16;;;;;;;18.88;15.48;;;;;;;32.63;14.94;95126.50;4891016;28;20073;-83
2021/03/03 08:34:08;;;;;;;18.33;16.13;;;;;;;32.65;15.42;95131.56;4846125;28;20048;-83
2021/03/03 08:36:41;;;;;;;17.58;15.38;;;;;;;33.01;14.60;95119.25;4947240;28;20656;-83
2021/03/03 08:41:59;;;;;;;19.42;16.25;;;;;;;32.43;14.59;95067.13;4907719;28;20230;-83
2021/03/03 08:44:28;;;;;;;19.45;17.27;;;;;;;32.94;14.89;95113.81;4898530;28;20578;-84
2021/03/03 08:47:17;;;;;;;;;;;;;;;;;;;;;
2021/03/03 08:49:53;;;;;;;18.65;15.85;;;;;;;32.44;14.91;95074.94;4939653;28;20513;-87
2021/03/03 08:52:24;;;;;;;22.05;17.25;;;;;;;31.37;15.73;95063.38;4930110;28;20042;-84
2021/03/03 08:54:55;;;;;;;18.33;16.10;;;;;;;30.78;16.22;95118.69;4903117;28;20043;-83
2021/03/03 08:58:01;;;;;;;20.27;16.50;;;;;;;30.64;15.79;95055.88;4839688;28;20577;-84
2021/03/03 09:04:01;;;;;;;18.45;16.50;;;;;;;30.09;16.22;95066.94;4863239;28;20884;-83
2021/03/03 09:06:32;;;;;;;20.48;16.88;;;;;;;29.78;16.60;95059.31;4940281;28;20062;-84
2021/03/03 09:13:11;;;;;;;19.20;16.73;;;;;;;28.65;18.03;95084.38;4947265;23;20989;-86
2021/03/03 09:16:11;;;;;;;20.88;16.70;;;;;;;28.91;18.02;95118.88;4854140;28;20135;-87
2021/03/03 09:19:18;;;;;;;;;;;;;;;;;;;;;
2021/03/03 09:21:49;;;;;;;22.10;16.88;;;;;;;28.13;18.89;95068.22;4971594;28;20056;-86
2021/03/03 09:24:42;;;;;;;19.52;15.60;;;;;;;28.20;18.66;95068.34;4865164;28;20065;-85
2021/03/03 12:03:30;;;;;;;19.85;12.07;;;;;;;18.94;27.45;94888.50;4882060;27;5351854;-91
2021/03/03 12:06:02;;;;;;;20.40;13.13;;;;;;;19.22;27.49;94915.75;5000890;28;20034;-89
2021/03/03 12:08:31;;;;;;;18.98;11.98;;;;;;;19.20;27.35;94917.19;5002830;28;20052;-92
2021/03/03 12:10:56;;;;;;;18.98;10.68;;;;;;;19.28;27.11;94901.09;5003652;28;20038;-91
2021/03/03 12:13:22;;;;;;;19.10;11.75;;;;;;;19.50;27.18;94926.97;5004995;28;20586;-90
2021/03/03 12:15:48;;;;;;;20.80;12.35;;;;;;;19.50;27.08;94923.53;4993872;28;20044;-90
2021/03/03 12:18:16;;;;;;;14.32;10.23;;;;;;;19.54;26.61;94930.63;5031095;28;20083;-91
2021/03/03 12:23:59;;;;;;;15.43;10.15;;;;;;;19.35;26.08;94930.88;4940404;28;20050;-90
2021/03/03 12:26:44;;;;;;;16.88;10.23;;;;;;;19.30;26.49;94925.69;5007644;28;20415;-89
2021/03/03 12:29:56;;;;;;;;;;;;;;;;;;;;;
2021/03/03 12:32:33;;;;;;;15.85;9.93;;;;;;;19.29;27.33;94894.66;4918777;28;20068;-90
2021/03/03 12:35:23;;;;;;;16.95;11.27;;;;;;;19.19;27.12;94878.88;4979439;28;20054;-90
2021/03/03 12:37:50;;;;;;;17.25;11.02;;;;;;;19.39;26.42;94907.72;4988117;28;20034;-92
2021/03/03 12:40:15;;;;;;;14.82;10.52;;;;;;;19.18;26.29;94881.88;5011594;28;20397;-89
2021/03/03 12:42:55;;;;;;;15.18;10.50;;;;;;;19.06;25.78;94884.41;4985929;28;20022;-91
2021/03/03 12:45:21;;;;;;;15.55;10.23;;;;;;;18.65;26.75;94874.91;5012610;28;20192;-90
2021/03/03 12:47:46;;;;;;;16.60;9.80;;;;;;;19.01;27.23;94910.22;4990250;28;20455;-92
2021/03/03 12:50:15;;;;;;;16.27;9.88;;;;;;;18.86;27.63;94856.34;5009301;28;20720;-91
2021/03/03 12:52:43;;;;;;;16.83;9.18;;;;;;;18.79;26.52;94845.31;4980375;28;20176;-91
2021/03/03 12:55:20;;;;;;;19.27;9.15;;;;;;;18.93;27.34;94857.44;4968635;28;20061;-91
2021/03/03 12:57:49;;;;;;;14.30;9.93;;;;;;;19.22;26.08;94899.69;4998757;28;20042;-91
2021/03/03 13:00:16;;;;;;;14.55;8.32;;;;;;;18.97;26.84;94877.13;5018653;28;20091;-90
2021/03/03 13:02:45;;;;;;;17.73;9.23;;;;;;;19.05;26.75;94891.66;4956103;28;20128;-91
2021/03/03 13:05:11;;;;;;;21.80;8.75;;;;;;;19.03;26.81;94877.78;4920962;28;20054;-90
2021/03/03 13:07:43;;;;;;;14.35;8.95;;;;;;;19.25;26.74;94904.44;4962789;28;20050;-91
2021/03/03 13:10:10;;;;;;;10.45;7.68;;;;;;;19.19;25.68;94904.88;4950764;28;20055;-90
2021/03/03 13:12:40;;;;;;;12.40;7.53;;;;;;;19.13;25.22;94904.25;4941096;28;20019;-90
2021/03/03 13:15:18;;;;;;;17.48;9.02;;;;;;;19.12;25.77;94900.00;4984145;28;20042;-90
2021/03/03 13:17:56;;;;;;;11.32;7.10;;;;;;;18.80;24.95;94860.28;4975070;28;20070;-91
2021/03/03 13:20:22;;;;;;;8.65;6.28;;;;;;;18.64;25.53;94829.69;4979905;28;20966;-89
2021/03/03 13:22:48;;;;;;;10.57;6.75;;;;;;;18.96;25.12;94885.50;4965740;28;20208;-90
2021/03/03 13:25:14;;;;;;;10.82;6.25;;;;;;;18.72;24.73;94853.78;4953071;28;20576;-90
2021/03/03 13:27:49;;;;;;;10.32;6.70;;;;;;;18.95;24.69;94889.28;4958849;28;20038;-91
2021/03/03 13:30:15;;;;;;;;;;;;;;;19.04;25.36;94895.44;5006892;28;20050;-90
2021/03/03 13:32:59;;;;;;;8.35;6.13;;;;;;;18.68;24.63;94828.75;4984419;28;19921;-91
2021/03/03 13:35:25;;;;;;;9.52;5.22;;;;;;;18.95;24.44;94874.00;4997534;28;20038;-91
2021/03/03 13:37:54;;;;;;;10.18;6.32;;;;;;;18.84;24.51;94856.66;4994042;28;20060;-91
2021/03/03 13:40:22;;;;;;;7.10;5.15;;;;;;;18.91;24.81;94867.66;4961444;28;20043;-88
2021/03/03 13:42:53;;;;;;;6.63;4.85;;;;;;;19.02;23.58;94884.22;4943559;28;20458;-89
2021/03/03 13:45:21;;;;;;;10.25;5.20;;;;;;;18.57;23.51;94830.94;4962740;28;20066;-91
2021/03/03 13:47:47;;;;;;;7.53;5.03;;;;;;;18.57;23.97;94840.84;4954703;28;20043;-89
2021/03/03 13:50:13;;;;;;;8.25;5.88;;;;;;;18.52;23.79;94832.97;4934421;28;20039;-90
2021/03/03 13:52:39;;;;;;;9.43;5.25;;;;;;;18.65;25.03;94855.38;4952051;28;20050;-90
2021/03/03 13:55:05;;;;;;;11.40;7.15;;;;;;;18.65;24.21;94833.97;4944372;28;20086;-88
2021/03/03 13:57:33;;;;;;;9.65;4.82;;;;;;;18.60;26.14;94835.69;4950921;28;20035;-90
2021/03/03 13:59:59;;;;;;;10.32;6.68;;;;;;;18.59;25.94;94815.38;4960251;28;20608;-88
2021/03/03 14:02:24;;;;;;;8.25;4.97;;;;;;;18.75;24.63;94831.75;4950184;28;20065;-90
2021/03/03 14:04:50;;;;;;;6.25;4.78;;;;;;;18.87;24.54;94826.56;4964131;28;20030;-92
2021/03/03 14:07:16;;;;;;;7.95;5.40;;;;;;;18.81;23.69;94825.16;4976230;28;20050;-91
2021/03/03 14:09:41;;;;;;;6.85;4.90;;;;;;;18.81;24.67;94819.81;4973823;28;20046;-89
2021/03/03 14:12:10;;;;;;;9.32;4.93;;;;;;;18.93;24.62;94827.19;4977165;28;20033;-92
2021/03/03 14:14:38;;;;;;;8.35;5.68;;;;;;;19.03;24.32;94833.03;4971979;28;20153;-89
2021/03/03 14:17:07;;;;;;;9.25;5.63;;;;;;;18.85;24.16;94804.66;4977205;28;20057;-90
2021/03/03 14:19:33;;;;;;;6.47;4.82;;;;;;;19.10;24.42;94834.44;4965627;28;20038;-91
2021/03/03 14:21:59;;;;;;;8.57;4.65;;;;;;;19.14;23.56;94836.16;4961833;28;20051;-90
2021/03/03 14:24:25;;;;;;;9.48;6.15;;;;;;;19.07;23.08;94817.09;4981313;28;20084;-91
2021/03/03 14:26:51;;;;;;;9.65;6.43;;;;;;;18.84;23.26;94789.69;4973743;28;20054;-90
2021/03/03 14:29:21;;;;;;;8.98;5.53;;;;;;;19.06;23.35;94826.22;4969066;28;21905;-90
2021/03/03 14:31:48;;;;;;;9.15;5.05;;;;;;;18.90;23.29;94812.53;4967487;28;20433;-92
2021/03/03 14:34:49;;;;;;;9.13;5.15;;;;;;;18.75;23.31;94794.28;4906254;28;20542;-92
2021/03/03 14:37:30;;;;;;;;;;;;;;;;;;;;;
2021/03/03 14:40:17;;;;;;;;;;;;;;;;;;;;;
2021/03/03 14:43:11;;;;;;;11.10;6.82;;;;;;;19.06;23.75;94831.59;4892598;28;20050;-90
2021/03/03 14:46:05;;;;;;;;;;;;;;;;;;;;;
2021/03/03 14:48:52;;;;;;;;;;;;;;;;;;;;;
2021/03/03 14:51:22;;;;;;;9.35;5.75;;;;;;;18.55;23.94;94786.84;4921326;28;20034;-94
2021/03/03 14:53:48;;;;;;;11.70;5.80;;;;;;;18.58;25.29;94800.41;4929795;28;20042;-92
2021/03/03 14:56:14;;;;;;;8.02;5.82;;;;;;;18.73;24.36;94807.19;4956405;28;20404;-94
2021/03/03 14:58:39;;;;;;;10.65;6.47;;;;;;;18.71;25.03;94804.03;4939525;28;20066;-92
2021/03/03 15:01:05;;;;;;;13.13;7.63;;;;;;;18.75;24.66;94820.25;4951727;28;20114;-90
2021/03/03 15:03:33;;;;;;;10.57;6.82;;;;;;;18.63;25.34;94806.69;4918951;28;20058;-89
2021/03/03 15:06:01;;;;;;;16.98;9.73;;;;;;;18.43;25.16;94784.75;4933966;28;20035;-89
2021/03/03 15:08:29;;;;;;;13.13;9.20;;;;;;;18.35;25.51;94774.84;4928612;28;20047;-93
2021/03/03 15:10:55;;;;;;;15.68;7.90;;;;;;;18.23;25.03;94758.59;4949153;28;20456;-92
2021/03/03 15:13:21;;;;;;;9.48;7.35;;;;;;;18.53;25.00;94813.94;4928774;28;20043;-87
2021/03/03 15:15:47;;;;;;;13.50;9.20;;;;;;;18.11;25.69;94769.13;4922821;28;20046;-91
2021/03/03 15:18:14;;;;;;;11.23;7.22;;;;;;;18.07;26.28;94789.59;4931208;28;20039;-91
2021/03/03 15:23:27;;;;;;;39.40;23.95;;;;;;;17.57;26.93;94797.88;4933588;28;20082;-89
2021/03/03 15:25:53;;;;;;;13.45;8.75;;;;;;;17.17;28.00;94794.34;4928852;28;20573;-89
2021/03/03 15:28:18;;;;;;;9.85;5.45;;;;;;;16.63;29.09;94806.03;4927113;28;20043;-89
2021/03/03 15:31:07;;;;;;;17.48;8.90;;;;;;;16.17;29.70;94792.09;4888949;28;20031;-96
2021/03/03 15:39:16;;;;;;;;;;;;;;;;;;;;;
2021/03/03 15:42:27;;;;;;;14.85;8.90;;;;;;;14.94;31.24;94816.72;4986616;28;20089;-91
2021/03/03 15:45:49;;;;;;;;;;;;;;;;;;;;;
2021/03/03 15:54:44;;;;;;;12.20;8.75;;;;;;;13.73;32.68;94751.94;4891596;29;20048;-89
2021/03/03 15:57:10;;;;;;;14.82;10.13;;;;;;;13.72;33.30;94769.72;4907696;29;20908;-91
2021/03/03 15:59:39;;;;;;;14.63;10.70;;;;;;;13.93;33.35;94815.44;4891968;29;20146;-90
2021/03/03 16:02:40;;;;;;;20.83;10.00;;;;;;;13.81;33.22;94818.50;4896534;28;20028;-91
2021/03/03 16:05:20;;;;;;;10.20;6.70;;;;;;;13.54;33.61;94790.91;4826804;28;20054;-95
2021/03/03 16:07:57;;;;;;;11.05;8.07;;;;;;;13.26;33.86;94785.38;4877484;29;20040;-93
2021/03/03 16:10:43;;;;;;;9.32;6.93;;;;;;;12.92;33.96;94750.09;4832906;28;20394;-92
2021/03/03 16:13:20;;;;;;;;;;;;;;;13.28;34.30;94825.72;4884208;28;20510;-89
2021/03/03 16:16:27;;;;;;;14.30;10.40;;;;;;;12.87;34.20;94781.97;4900582;28;19937;-93
2021/03/03 16:18:55;;;;;;;13.07;9.07;;;;;;;12.87;34.26;94797.91;4897963;28;20059;-90
2021/03/03 16:21:21;;;;;;;14.35;8.65;;;;;;;13.07;34.02;94834.09;4914025;29;20284;-92
2021/03/03 16:23:59;;;;;;;;;;;;;;;;;;;;;
2021/03/03 16:26:42;;;;;;;;;;;;;;;;;;;;;
2021/03/03 16:29:18;;;;;;;;;;;;;;;;;;;;;
2021/03/03 16:31:51;;;;;;;8.80;7.05;;;;;;;12.58;34.85;94811.91;4848021;29;20388;-89
2021/03/03 16:34:17;;;;;;;12.98;7.15;;;;;;;12.55;34.72;94823.09;4904897;28;20067;-88
2021/03/03 16:37:03;;;;;;;10.90;6.72;;;;;;;12.01;35.00;94761.38;4893658;29;20397;-91
2021/03/03 16:40:11;;;;;;;;;;;;;;;;;;;;;
2021/03/03 16:42:39;;;;;;;10.65;4.95;;;;;;;12.10;34.82;94804.78;4899960;29;20040;-91
2021/03/03 16:45:32;;;;;;;8.32;4.47;;;;;;;12.14;34.81;94814.56;4903258;29;20406;-94
2021/03/03 16:48:05;;;;;;;7.85;4.57;;;;;;;12.18;34.63;94822.75;4849047;29;20079;-91
2021/03/03 16:50:32;;;;;;;11.57;7.07;;;;;;;11.98;34.85;94807.75;4894590;28;21224;-90
2021/03/03 16:53:02;;;;;;;8.27;5.78;;;;;;;12.23;34.70;94843.94;4928893;28;20043;-89
2021/03/03 16:55:31;;;;;;;12.48;5.20;;;;;;;12.12;34.64;94826.47;4929844;28;20167;-91
2021/03/03 16:58:06;;;;;;;13.13;4.97;;;;;;;11.97;34.38;94819.41;4942022;28;20051;-93
2021/03/03 17:00:33;;;;;;;10.73;6.75;;;;;;;11.83;34.98;94812.31;4924631;28;20031;-90
2021/03/03 17:03:04;;;;;;;8.90;6.35;;;;;;;11.61;34.83;94786.16;4932339;28;20042;-91
2021/03/03 17:05:29;;;;;;;10.70;6.57;;;;;;;11.91;34.80;94833.75;4926392;28;20047;-90
2021/03/03 17:07:55;;;;;;;7.00;5.35;;;;;;;11.71;34.87;94797.50;4899988;28;20444;-89
2021/03/03 17:10:23;;;;;;;12.45;6.85;;;;;;;11.97;35.07;94831.88;4955682;28;20101;-93
2021/03/03 17:12:52;;;;;;;11.35;7.28;;;;;;;12.09;35.27;94858.84;4874415;28;20050;-90
2021/03/03 17:15:20;;;;;;;9.73;7.20;;;;;;;11.80;35.25;94813.66;4922549;28;20130;-90
2021/03/03 17:17:45;;;;;;;23.58;14.95;;;;;;;11.77;35.24;94810.78;4901620;28;20047;-90
2021/03/03 17:20:22;;;;;;;11.00;9.27;;;;;;;11.62;35.94;94820.31;4910498;28;20030;-84
2021/03/03 17:22:48;;;;;;;16.58;12.05;;;;;;;11.62;36.06;94827.47;4929120;28;20023;-84
2021/03/03 17:25:25;;;;;;;15.15;12.45;;;;;;;11.65;36.40;94840.94;4897624;28;20064;-85
2021/03/03 17:28:31;;;;;;;11.73;9.10;;;;;;;11.69;36.33;94847.28;4843687;28;20135;-85